Pluto — D5FC4 — position and weather

sailwx.info

Track history (hours):
 
Tides and Currents Weather Stations Pressure Air Temp Water Temp Dewpoint Dewpoint Depression Visibility Wind Speed Wind Dir Waves Ship Positions

Pluto

Last reported at 2017-Nov-18 12:05 UTC. Time now 2017-Nov-23 05:52 UTC.
Position N 40°43' E 029°21'.

Length 175 m; draft 8.3 m.

Type: Cargo ship. MMSI: 636016416.

Date/timePositionNaut miles runAvg speedWind from/ knotsBaromVisibWave heightAir tempDewpointWater temp
2017-Nov-18 12:05N 40°43' E 029°21'1 8.7
2017-Nov-18 12:00N 40°43' E 029°21'611.6
2017-Nov-18 11:29N 40°44' E 029°13'713.6
2017-Nov-18 11:00N 40°43' E 029°04'613.1
2017-Nov-18 10:30N 40°40' E 028°57'15 7.2
2017-Nov-18 08:26N 40°26' E 029°02'2 0.1
2017-Nov-17 10:49N 40°25' E 029°05'0 0.0
2017-Nov-17 02:07N 40°25' E 029°05'0 0.0
2017-Nov-17 01:49N 40°25' E 029°05'0 0.0
2017-Nov-17 01:25N 40°25' E 029°05'  
2017-Nov-10 15:47N 38°13' E 022°36'414.1
2017-Nov-10 15:30N 38°12' E 022°41'1213.1
2017-Nov-10 14:36N 38°10' E 022°56'110.5
2017-Nov-10 14:30N 38°10' E 022°57'3 1.2
2017-Nov-10 11:48N 38°13' E 022°57'0 0.0
2017-Nov-10 11:15N 38°13' E 022°57'0 0.0
2017-Nov-10 08:51N 38°13' E 022°57'0 0.0
2017-Nov-10 07:21N 38°13' E 022°57'0 0.0
2017-Nov-10 06:09N 38°13' E 022°57'0 0.0
2017-Nov-10 05:52N 38°13' E 022°57'1 0.1
2017-Nov-09 17:07N 38°13' E 022°58'2 7.5
2017-Nov-09 16:51N 38°11' E 022°59'7 9.9
2017-Nov-09 16:11N 38°10' E 022°50'213.1
2017-Nov-09 16:00N 38°11' E 022°48'713.4
2017-Nov-09 15:30N 38°12' E 022°39'  
Track history (hours):
 
Tides and Currents Weather Stations Pressure Air Temp Water Temp Dewpoint Dewpoint Depression Visibility Wind Speed Wind Dir Waves Ship Positions

Pluto

Last reported at 2017-Nov-18 12:05 UTC. Time now 2017-Nov-23 05:52 UTC.
Position N 40°43' E 029°21'.

Length 175 m; draft 8.3 m.

Type: Cargo ship. MMSI: 636016416.

Date/timePositionNaut miles runAvg speedWind from/ knotsBaromVisibWave heightAir tempDewpointWater temp
2017-Nov-18 12:05N 40°43' E 029°21'1 8.7
2017-Nov-18 12:00N 40°43' E 029°21'611.6
2017-Nov-18 11:29N 40°44' E 029°13'713.6
2017-Nov-18 11:00N 40°43' E 029°04'613.1
2017-Nov-18 10:30N 40°40' E 028°57'15 7.2
2017-Nov-18 08:26N 40°26' E 029°02'2 0.1
2017-Nov-17 10:49N 40°25' E 029°05'0 0.0
2017-Nov-17 02:07N 40°25' E 029°05'0 0.0
2017-Nov-17 01:49N 40°25' E 029°05'0 0.0
2017-Nov-17 01:25N 40°25' E 029°05'  
2017-Nov-10 15:47N 38°13' E 022°36'414.1
2017-Nov-10 15:30N 38°12' E 022°41'1213.1
2017-Nov-10 14:36N 38°10' E 022°56'110.5
2017-Nov-10 14:30N 38°10' E 022°57'3 1.2
2017-Nov-10 11:48N 38°13' E 022°57'0 0.0
2017-Nov-10 11:15N 38°13' E 022°57'0 0.0
2017-Nov-10 08:51N 38°13' E 022°57'0 0.0
2017-Nov-10 07:21N 38°13' E 022°57'0 0.0
2017-Nov-10 06:09N 38°13' E 022°57'0 0.0
2017-Nov-10 05:52N 38°13' E 022°57'1 0.1
2017-Nov-09 17:07N 38°13' E 022°58'2 7.5
2017-Nov-09 16:51N 38°11' E 022°59'7 9.9
2017-Nov-09 16:11N 38°10' E 022°50'213.1
2017-Nov-09 16:00N 38°11' E 022°48'713.4
2017-Nov-09 15:30N 38°12' E 022°39'  

Dump ship's entire track history